Darstellungsparameter: Aktuell verwendete Einstellungen:
Skalierung der Graphiken ... ?
xyx+y,   Skalierungsfaktor:      Skalierung: Modus: x, Faktor: 1
Darstellungszeitraum ... ?
Vom - - bis: - -   Zeitraum: 20.09.2019 - 19.10.2019
Min/Max/Avg-Anzeige ... ?
Zeige MMA aktuell
Zeige MMA Monat
Zeige MMA alles
Zeige --A aktuell
Zeige --A Monat
Zeige --A alles
Keine MMA-Anzeige
MMA:
Average (ber die Originaldaten)
MMA-Basis: 20.09.2019 - 19.10.2019
Quicknavigation für Darstellung... ?
Tage:      1T, 2T, 3T, 5T -1T -2T -3T -5T +1T +2T +3T +5T
Wochen: 1W, 2W, 3W -1W -2W -3W +1W +2W +3W
Monate: 1M, 3M, 6M -1M -3M -6M +1M +3M +6M
Jahre:    1J, 3J, 5J, 10J -1J -3J -5J -10J +1J +3J +5J +10J
Nutze für die Darstellung ... ?
Originaldaten oder ...
Mittelwerte Minima Maxima auf...
Stundenbasis Tagesbasis Wochenbasis
Monatsbasis Jahresbasis      Datenbasis: Mittelwerte auf Stundenbasis
Darstellen als:
Statistik (Auto) Statistik J:M      Darstellung:
Zur Graphik,    zurück zur Übersicht aller Sensoren.
 
Tabellarische Datenbersicht: ?
 
Sensor: Nr:Datum:Temp:Abs-Feuchte:Windchill:Wind:
Aussen-T/F 1 20-09-2019 00:00:00 7.625 C 6.46 g/m*3 7.63 C 0 km/h
2 20-09-2019 01:00:00 7.05 C 6.42 g/m*3 7.05 C 0 km/h
3 20-09-2019 02:00:00 6.21667 C 6.27 g/m*3 6.22 C 0 km/h
4 20-09-2019 03:00:00 5.75 C 6.19 g/m*3 5.75 C 0 km/h
5 20-09-2019 04:00:00 5.15 C 6.09 g/m*3 5.15 C 0 km/h
6 20-09-2019 05:00:00 4.69167 C 6.03 g/m*3 4.69 C 0 km/h
7 20-09-2019 06:00:00 4.325 C 5.97 g/m*3 4.33 C 0 km/h
8 20-09-2019 07:00:00 4.125 C 5.96 g/m*3 4.13 C 0 km/h
9 20-09-2019 08:00:00 4.65 C 6.24 g/m*3 4.65 C 0 km/h
10 20-09-2019 09:00:00 5.625 C 6.69 g/m*3 5.63 C 0 km/h
11 20-09-2019 10:00:00 7.39167 C 7.47 g/m*3 7.39 C 0 km/h
12 20-09-2019 11:00:00 10 C 8.1 g/m*3 10 C 0 km/h
13 20-09-2019 12:00:00 13.41667 C 7.68 g/m*3 13.42 C 4.95833 km/h
14 20-09-2019 13:00:00 15.83333 C 7.25 g/m*3 15.83 C 5.21667 km/h
15 20-09-2019 14:00:00 17.63333 C 7.14 g/m*3 17.63 C 7.11667 km/h
16 20-09-2019 15:00:00 18.525 C 6.89 g/m*3 18.52 C 7.925 km/h
17 20-09-2019 16:00:00 19.26667 C 7.01 g/m*3 19.27 C 9.28333 km/h
18 20-09-2019 17:00:00 20.33333 C 7.02 g/m*3 20.33 C 8.59167 km/h
19 20-09-2019 18:00:00 20.525 C 7.17 g/m*3 20.53 C 4.55 km/h
20 20-09-2019 19:00:00 15.85 C 7.09 g/m*3 15.85 C 0.8 km/h
21 20-09-2019 20:00:00 13.7 C 6.96 g/m*3 13.7 C 1.33333 km/h
22 20-09-2019 21:00:00 11.68333 C 7.14 g/m*3 11.68 C 0 km/h
23 20-09-2019 22:00:00 9.525 C 6.97 g/m*3 9.53 C 0 km/h
24 20-09-2019 23:00:00 8.425 C 6.87 g/m*3 8.43 C 0 km/h
25 21-09-2019 00:00:00 7.44167 C 6.69 g/m*3 7.44 C 0 km/h
Sensor: Nr:Datum:Temp:Abs-Feuchte:Windchill:Wind:
Aussen-T/F 26 21-09-2019 01:00:00 6.85 C 6.55 g/m*3 6.85 C 0 km/h
27 21-09-2019 02:00:00 6.34167 C 6.4 g/m*3 6.34 C 0 km/h
28 21-09-2019 03:00:00 5.80833 C 6.27 g/m*3 5.81 C 0 km/h
29 21-09-2019 04:00:00 5.45833 C 6.24 g/m*3 5.46 C 0 km/h
30 21-09-2019 05:00:00 5.275 C 6.25 g/m*3 5.28 C 0 km/h
31 21-09-2019 06:00:00 4.80833 C 6.1 g/m*3 4.81 C 0 km/h
32 21-09-2019 07:00:00 4.60833 C 6.09 g/m*3 4.61 C 0 km/h
33 21-09-2019 08:00:00 4.725 C 6.21 g/m*3 4.72 C 0 km/h
34 21-09-2019 09:00:00 5.79167 C 6.72 g/m*3 5.79 C 0 km/h
35 21-09-2019 10:00:00 8.225 C 7.58 g/m*3 8.23 C 0 km/h
36 21-09-2019 11:00:00 11.40833 C 8.4 g/m*3 11.41 C 0 km/h
37 21-09-2019 12:00:00 14.95 C 8.6 g/m*3 14.95 C 0.66667 km/h
38 21-09-2019 13:00:00 18.2 C 7.78 g/m*3 18.2 C 4 km/h
39 21-09-2019 14:00:00 21.43333 C 6.23 g/m*3 21.43 C 7.24167 km/h
40 21-09-2019 15:00:00 22.63333 C 6.11 g/m*3 22.63 C 7.925 km/h
41 21-09-2019 16:00:00 23.23333 C 6.53 g/m*3 23.23 C 7.375 km/h
42 21-09-2019 17:00:00 24.65833 C 7.13 g/m*3 24.66 C 5.09167 km/h
43 21-09-2019 18:00:00 22.74167 C 7.97 g/m*3 22.74 C 0.66667 km/h
44 21-09-2019 19:00:00 18.49167 C 7.54 g/m*3 18.49 C 1.6 km/h
45 21-09-2019 20:00:00 16.16667 C 7.62 g/m*3 16.17 C 0.66667 km/h
46 21-09-2019 21:00:00 13.66667 C 7.8 g/m*3 13.67 C 0 km/h
47 21-09-2019 22:00:00 11.99167 C 7.62 g/m*3 11.99 C 0 km/h
48 21-09-2019 23:00:00 10.88333 C 7.52 g/m*3 10.88 C 0 km/h
49 22-09-2019 00:00:00 9.825 C 7.43 g/m*3 9.82 C 0 km/h
50 22-09-2019 01:00:00 9.08333 C 7.39 g/m*3 9.08 C 0 km/h
Sensor: Nr:Datum:Temp:Abs-Feuchte:Windchill:Wind:
Aussen-T/F 51 22-09-2019 02:00:00 8.425 C 7.24 g/m*3 8.43 C 0 km/h
52 22-09-2019 03:00:00 7.96667 C 7.23 g/m*3 7.97 C 0 km/h
53 22-09-2019 04:00:00 7.39167 C 7.07 g/m*3 7.39 C 0 km/h
54 22-09-2019 05:00:00 7.06667 C 7.06 g/m*3 7.07 C 0 km/h
55 22-09-2019 06:00:00 6.99167 C 7.12 g/m*3 6.99 C 0 km/h
56 22-09-2019 07:00:00 6.93333 C 7.14 g/m*3 6.93 C 0 km/h
57 22-09-2019 08:00:00 7.55833 C 7.47 g/m*3 7.56 C 0 km/h
58 22-09-2019 09:00:00 8.63333 C 8.02 g/m*3 8.63 C 0 km/h
59 22-09-2019 10:00:00 11.05 C 9.19 g/m*3 11.05 C 0 km/h
60 22-09-2019 11:00:00 14.83333 C 10.13 g/m*3 14.83 C 0 km/h
61 22-09-2019 12:00:00 17.68333 C 10.99 g/m*3 17.68 C 0 km/h
62 22-09-2019 13:00:00 20.70833 C 11.63 g/m*3 20.71 C 0.26667 km/h
63 22-09-2019 14:00:00 24.05 C 11.64 g/m*3 24.05 C 2.93333 km/h
64 22-09-2019 15:00:00 24.85 C 11.36 g/m*3 24.85 C 3.86667 km/h
65 22-09-2019 16:00:00 24.73333 C 12.25 g/m*3 24.73 C 0.8 km/h
66 22-09-2019 17:00:00 23.48333 C 12.59 g/m*3 23.48 C 0 km/h
67 22-09-2019 18:00:00 21.74167 C 12.24 g/m*3 21.74 C 0 km/h
68 22-09-2019 19:00:00 20.33333 C 11.45 g/m*3 20.33 C 0 km/h
69 22-09-2019 20:00:00 19.075 C 10.9 g/m*3 19.08 C 2 km/h
70 22-09-2019 21:00:00 18.175 C 10.66 g/m*3 18.18 C 1.46667 km/h
71 22-09-2019 22:00:00 18.3 C 10.92 g/m*3 18.3 C 0.13333 km/h
72 22-09-2019 23:00:00 17.80833 C 11.4 g/m*3 17.81 C 0 km/h
73 23-09-2019 00:00:00 17.55833 C 12.04 g/m*3 17.56 C 2.80833 km/h
74 23-09-2019 01:00:00 18.375 C 12.81 g/m*3 18.38 C 3.33333 km/h
75 23-09-2019 02:00:00 18.10833 C 12.21 g/m*3 18.11 C 9.26667 km/h
Sensor: Nr:Datum:Temp:Abs-Feuchte:Windchill:Wind:
Aussen-T/F 76 23-09-2019 03:00:00 17.2 C 12.06 g/m*3 17.2 C 4.95 km/h
77 23-09-2019 04:00:00 16.05833 C 11.82 g/m*3 16.06 C 0.93333 km/h
78 23-09-2019 05:00:00 15.14167 C 11.8 g/m*3 15.14 C 1.86667 km/h
79 23-09-2019 06:00:00 14.43333 C 11.53 g/m*3 14.43 C 0.26667 km/h
80 23-09-2019 07:00:00 14.23333 C 11.52 g/m*3 14.23 C 0 km/h
81 23-09-2019 08:00:00 14.25 C 11.64 g/m*3 14.25 C 0 km/h
82 23-09-2019 09:00:00 14.74167 C 12.1 g/m*3 14.74 C 0 km/h
83 23-09-2019 10:00:00 15.425 C 12.63 g/m*3 15.43 C 0.4 km/h
84 23-09-2019 11:00:00 16.26667 C 13.08 g/m*3 16.27 C 2.8 km/h
85 23-09-2019 12:00:00 17.06667 C 13.18 g/m*3 17.07 C 8.06667 km/h
86 23-09-2019 13:00:00 18.2 C 12.67 g/m*3 18.2 C 10.49167 km/h
87 23-09-2019 14:00:00 19.425 C 11.89 g/m*3 19.43 C 13.3 km/h
88 23-09-2019 15:00:00 19.61667 C 11.63 g/m*3 19.62 C 12.36667 km/h
89 23-09-2019 16:00:00 19.94167 C 11.61 g/m*3 19.94 C 14.36667 km/h
90 23-09-2019 17:00:00 20.24167 C 11.57 g/m*3 20.24 C 12.49167 km/h
91 23-09-2019 18:00:00 18.46667 C 11.71 g/m*3 18.47 C 1.2 km/h
92 23-09-2019 19:00:00 16 C 11.16 g/m*3 16 C 0.13333 km/h
93 23-09-2019 20:00:00 14.34167 C 10.75 g/m*3 14.34 C 0 km/h
94 23-09-2019 21:00:00 13.96667 C 10.85 g/m*3 13.97 C 0 km/h
95 23-09-2019 22:00:00 13.9 C 11.03 g/m*3 13.9 C 0 km/h
96 23-09-2019 23:00:00 14.11667 C 11.21 g/m*3 14.12 C 0 km/h
97 24-09-2019 00:00:00 14.33333 C 11.37 g/m*3 14.33 C 0 km/h
98 24-09-2019 01:00:00 13.95 C 11.01 g/m*3 13.95 C 0 km/h
99 24-09-2019 02:00:00 12.66667 C 10.28 g/m*3 12.67 C 0 km/h
100 24-09-2019 03:00:00 11.96667 C 9.98 g/m*3 11.97 C 0 km/h
Sensor: Nr:Datum:Temp:Abs-Feuchte:Windchill:Wind:
Aussen-T/F 101 24-09-2019 04:00:00 11.50833 C 9.77 g/m*3 11.51 C 0 km/h
102 24-09-2019 05:00:00 10.675 C 9.31 g/m*3 10.68 C 0 km/h
103 24-09-2019 06:00:00 10.25 C 9.1 g/m*3 10.25 C 0 km/h
104 24-09-2019 07:00:00 9.89167 C 8.94 g/m*3 9.89 C 0 km/h
105 24-09-2019 08:00:00 10.65 C 9.44 g/m*3 10.65 C 0 km/h
106 24-09-2019 09:00:00 11.35833 C 9.93 g/m*3 11.36 C 0.8 km/h
107 24-09-2019 10:00:00 12.49167 C 10.66 g/m*3 12.49 C 0 km/h
108 24-09-2019 11:00:00 14.48333 C 11.78 g/m*3 14.48 C 0.93333 km/h
109 24-09-2019 12:00:00 17.53333 C 12.03 g/m*3 17.53 C 3.88333 km/h
110 24-09-2019 13:00:00 18.59167 C 11.6 g/m*3 18.59 C 6.44167 km/h
111 24-09-2019 14:00:00 19.21667 C 11.33 g/m*3 19.22 C 1.60833 km/h
112 24-09-2019 15:00:00 18.63333 C 11.3 g/m*3 18.63 C 0.66667 km/h
113 24-09-2019 16:00:00 17.70833 C 12.37 g/m*3 17.71 C 0.93333 km/h
114 24-09-2019 17:00:00 16.95 C 12.96 g/m*3 16.95 C 0 km/h
115 24-09-2019 18:00:00 16.125 C 12.64 g/m*3 16.13 C 0 km/h
116 24-09-2019 19:00:00 15.1 C 12.01 g/m*3 15.1 C 0 km/h
117 24-09-2019 20:00:00 14.01667 C 11.37 g/m*3 14.02 C 0 km/h
118 24-09-2019 21:00:00 13.65 C 11.21 g/m*3 13.65 C 0 km/h
119 24-09-2019 22:00:00 13.64167 C 11.29 g/m*3 13.64 C 0 km/h
120 24-09-2019 23:00:00 13.775 C 11.42 g/m*3 13.78 C 0 km/h
121 25-09-2019 00:00:00 13.99167 C 11.57 g/m*3 13.99 C 0.13333 km/h
122 25-09-2019 01:00:00 14.13333 C 11.72 g/m*3 14.13 C 1.34167 km/h
123 25-09-2019 02:00:00 14.49167 C 11.93 g/m*3 14.49 C 3.35 km/h
124 25-09-2019 03:00:00 14.6 C 12.01 g/m*3 14.6 C 0.4 km/h
125 25-09-2019 04:00:00 14.55833 C 11.98 g/m*3 14.56 C 0.53333 km/h
Sensor: Nr:Datum:Temp:Abs-Feuchte:Windchill:Wind:
Aussen-T/F 126 25-09-2019 05:00:00 14.01667 C 11.59 g/m*3 14.02 C 1.33333 km/h
127 25-09-2019 06:00:00 13.64167 C 11.33 g/m*3 13.64 C 0.93333 km/h
128 25-09-2019 07:00:00 13.61667 C 11.33 g/m*3 13.62 C 0.8 km/h
129 25-09-2019 08:00:00 13.75 C 11.51 g/m*3 13.75 C 0 km/h
130 25-09-2019 09:00:00 14.33333 C 11.94 g/m*3 14.33 C 1.33333 km/h
131 25-09-2019 10:00:00 14.90833 C 12.03 g/m*3 14.91 C 8.475 km/h
132 25-09-2019 11:00:00 16.225 C 11.94 g/m*3 16.23 C 13.69167 km/h
133 25-09-2019 12:00:00 16.875 C 11.57 g/m*3 16.88 C 10.35833 km/h
134 25-09-2019 13:00:00 17.38333 C 11.46 g/m*3 17.38 C 11.81667 km/h
135 25-09-2019 14:00:00 17.38333 C 11.57 g/m*3 17.38 C 10.35833 km/h
136 25-09-2019 15:00:00 16.325 C 12.4 g/m*3 16.33 C 4.8 km/h
137 25-09-2019 16:00:00 17.08333 C 12.36 g/m*3 17.08 C 7.38333 km/h
138 25-09-2019 17:00:00 17.53333 C 12.19 g/m*3 17.53 C 7.24167 km/h
139 25-09-2019 18:00:00 16.775 C 11.91 g/m*3 16.77 C 2.54167 km/h
140 25-09-2019 19:00:00 15.625 C 11.72 g/m*3 15.63 C 0.53333 km/h
141 25-09-2019 20:00:00 15.10833 C 11.76 g/m*3 15.11 C 0 km/h
142 25-09-2019 21:00:00 14.71667 C 11.69 g/m*3 14.72 C 0.13333 km/h
143 25-09-2019 22:00:00 14.7 C 11.8 g/m*3 14.7 C 0 km/h
144 25-09-2019 23:00:00 14.65833 C 11.93 g/m*3 14.66 C 0 km/h
145 26-09-2019 00:00:00 14.55833 C 11.86 g/m*3 14.56 C 0.26667 km/h
146 26-09-2019 01:00:00 14.23333 C 11.65 g/m*3 14.23 C 0 km/h
147 26-09-2019 02:00:00 14.13333 C 11.67 g/m*3 14.13 C 0 km/h
148 26-09-2019 03:00:00 13.60833 C 11.29 g/m*3 13.61 C 0 km/h
149 26-09-2019 04:00:00 13.25833 C 11.08 g/m*3 13.26 C 0 km/h
150 26-09-2019 05:00:00 13.90833 C 11.6 g/m*3 13.91 C 2.01667 km/h
Sensor: Nr:Datum:Temp:Abs-Feuchte:Windchill:Wind:
Aussen-T/F 151 26-09-2019 06:00:00 14.125 C 11.78 g/m*3 14.13 C 0.53333 km/h
152 26-09-2019 07:00:00 14.35833 C 11.84 g/m*3 14.36 C 0.13333 km/h
153 26-09-2019 08:00:00 14.74167 C 12.12 g/m*3 14.74 C 0.26667 km/h
154 26-09-2019 09:00:00 15.10833 C 12.35 g/m*3 15.11 C 0.4 km/h
155 26-09-2019 10:00:00 15.86667 C 12.91 g/m*3 15.87 C 0.13333 km/h
156 26-09-2019 11:00:00 16.59167 C 13.37 g/m*3 16.59 C 0.93333 km/h
157 26-09-2019 12:00:00 17.61667 C 13.75 g/m*3 17.62 C 5.225 km/h
158 26-09-2019 13:00:00 17.775 C 13.9 g/m*3 17.77 C 1.06667 km/h
159 26-09-2019 14:00:00 17.51667 C 13.84 g/m*3 17.52 C 0.93333 km/h
160 26-09-2019 15:00:00 18.05833 C 14.13 g/m*3 18.06 C 1.2 km/h
161 26-09-2019 16:00:00 18.83333 C 14.32 g/m*3 18.83 C 4.15 km/h
162 26-09-2019 17:00:00 18.91667 C 14.2 g/m*3 18.92 C 4.675 km/h
163 26-09-2019 18:00:00 18.71667 C 14.24 g/m*3 18.72 C 2.68333 km/h
164 26-09-2019 19:00:00 18.04167 C 13.99 g/m*3 18.04 C 2.01667 km/h
165 26-09-2019 20:00:00 17.39167 C 13.29 g/m*3 17.39 C 6.03333 km/h
166 26-09-2019 21:00:00 17.36667 C 13.16 g/m*3 17.37 C 5.5 km/h
167 26-09-2019 22:00:00 17.725 C 13.08 g/m*3 17.73 C 10.23333 km/h
168 26-09-2019 23:00:00 17.81667 C 12.99 g/m*3 17.82 C 7.5 km/h
169 27-09-2019 00:00:00 17.98333 C 12.86 g/m*3 17.98 C 6.975 km/h
170 27-09-2019 01:00:00 18.05 C 12.68 g/m*3 18.05 C 10.20833 km/h
171 27-09-2019 02:00:00 17.96667 C 12.58 g/m*3 17.97 C 9.68333 km/h
172 27-09-2019 03:00:00 16.71667 C 12.82 g/m*3 16.72 C 6.18333 km/h
173 27-09-2019 04:00:00 16.29167 C 12.83 g/m*3 16.29 C 2.95 km/h
174 27-09-2019 05:00:00 16.16667 C 12.81 g/m*3 16.17 C 2.13333 km/h
175 27-09-2019 06:00:00 15.78333 C 12.67 g/m*3 15.78 C 2.15 km/h
Sensor: Nr:Datum:Temp:Abs-Feuchte:Windchill:Wind:
Aussen-T/F 176 27-09-2019 07:00:00 14.41667 C 11.71 g/m*3 14.42 C 2.28333 km/h
177 27-09-2019 08:00:00 14.1 C 11.62 g/m*3 14.1 C 0.66667 km/h
178 27-09-2019 09:00:00 13.99167 C 11.57 g/m*3 13.99 C 3.75 km/h
179 27-09-2019 10:00:00 14.69167 C 12.02 g/m*3 14.69 C 6.58333 km/h
180 27-09-2019 11:00:00 15.35 C 12.16 g/m*3 15.35 C 6.7 km/h
181 27-09-2019 12:00:00 15.96667 C 12.11 g/m*3 15.97 C 11.29167 km/h
182 27-09-2019 13:00:00 17.29167 C 11.95 g/m*3 17.29 C 12.9 km/h
183 27-09-2019 14:00:00 18.15833 C 11.77 g/m*3 18.16 C 14.9 km/h
184 27-09-2019 15:00:00 18.21667 C 11.79 g/m*3 18.22 C 13.83333 km/h
185 27-09-2019 16:00:00 17.96667 C 11.79 g/m*3 17.97 C 12.1 km/h
186 27-09-2019 17:00:00 18.98333 C 11.78 g/m*3 18.98 C 12.36667 km/h
187 27-09-2019 18:00:00 18.01667 C 11.54 g/m*3 18.02 C 10.75833 km/h
188 27-09-2019 19:00:00 16.05833 C 11.25 g/m*3 16.06 C 3.75833 km/h
189 27-09-2019 20:00:00 15.13333 C 11.37 g/m*3 15.13 C 0.26667 km/h
190 27-09-2019 21:00:00 14.275 C 11.06 g/m*3 14.28 C 0.26667 km/h
191 27-09-2019 22:00:00 13.83333 C 11.04 g/m*3 13.83 C 0 km/h
192 27-09-2019 23:00:00 13.5 C 10.98 g/m*3 13.5 C 0 km/h
193 28-09-2019 00:00:00 12.875 C 10.64 g/m*3 12.88 C 0.66667 km/h
194 28-09-2019 01:00:00 12.90833 C 10.72 g/m*3 12.91 C 3.21667 km/h
195 28-09-2019 02:00:00 14.21667 C 11.16 g/m*3 14.22 C 9.13333 km/h
196 28-09-2019 03:00:00 14.825 C 11.33 g/m*3 14.83 C 6.45 km/h
197 28-09-2019 04:00:00 14.04167 C 11.17 g/m*3 14.04 C 5.63333 km/h
198 28-09-2019 05:00:00 13.95 C 11.05 g/m*3 13.95 C 6.84167 km/h
199 28-09-2019 06:00:00 14.4 C 11.21 g/m*3 14.4 C 9.4 km/h
200 28-09-2019 07:00:00 14.1 C 11.28 g/m*3 14.1 C 1.875 km/h
Sensor: Nr:Datum:Temp:Abs-Feuchte:Windchill:Wind:
Aussen-T/F 201 28-09-2019 08:00:00 13.89167 C 11.18 g/m*3 13.89 C 7.94167 km/h
202 28-09-2019 09:00:00 14.35833 C 11.11 g/m*3 14.36 C 12.225 km/h
203 28-09-2019 10:00:00 15.4 C 11.21 g/m*3 15.4 C 12.75833 km/h
204 28-09-2019 11:00:00 16.30833 C 11.15 g/m*3 16.31 C 17.43333 km/h
205 28-09-2019 12:00:00 16.85 C 11.27 g/m*3 16.85 C 13.16667 km/h
206 28-09-2019 13:00:00 17.21667 C 11.3 g/m*3 17.22 C 17.3 km/h
207 28-09-2019 14:00:00 17.49167 C 11.4 g/m*3 17.49 C 17.3 km/h
208 28-09-2019 15:00:00 17.16667 C 11.3 g/m*3 17.17 C 15.43333 km/h
209 28-09-2019 16:00:00 17.35833 C 11.48 g/m*3 17.36 C 14.23333 km/h
210 28-09-2019 17:00:00 17.71667 C 11.43 g/m*3 17.72 C 15.96667 km/h
211 28-09-2019 18:00:00 17.14167 C 11.18 g/m*3 17.14 C 11.025 km/h
212 28-09-2019 19:00:00 15.7 C 10.78 g/m*3 15.7 C 8.99167 km/h
213 28-09-2019 20:00:00 15.24167 C 10.7 g/m*3 15.24 C 5.89167 km/h
214 28-09-2019 21:00:00 14.975 C 10.58 g/m*3 14.98 C 7.79167 km/h
215 28-09-2019 22:00:00 15.13333 C 10.51 g/m*3 15.13 C 9.53333 km/h
216 28-09-2019 23:00:00 14.15 C 10.33 g/m*3 14.15 C 4.55 km/h
217 29-09-2019 00:00:00 13.875 C 10.33 g/m*3 13.88 C 2.81667 km/h
218 29-09-2019 01:00:00 13.95 C 10.4 g/m*3 13.95 C 0.66667 km/h
219 29-09-2019 02:00:00 13.65 C 10.49 g/m*3 13.65 C 0 km/h
220 29-09-2019 03:00:00 13.48333 C 10.54 g/m*3 13.48 C 0 km/h
221 29-09-2019 04:00:00 13.525 C 10.66 g/m*3 13.53 C 0 km/h
222 29-09-2019 05:00:00 13.81667 C 10.66 g/m*3 13.82 C 0.26667 km/h
223 29-09-2019 06:00:00 13.94167 C 10.43 g/m*3 13.94 C 0.93333 km/h
224 29-09-2019 07:00:00 14.025 C 10.46 g/m*3 14.03 C 1.33333 km/h
225 29-09-2019 08:00:00 14.95833 C 10.59 g/m*3 14.96 C 5.75833 km/h
Sensor: Nr:Datum:Temp:Abs-Feuchte:Windchill:Wind:
Aussen-T/F 226 29-09-2019 09:00:00 16.53333 C 10.83 g/m*3 16.53 C 13.69167 km/h
227 29-09-2019 10:00:00 17.45833 C 10.94 g/m*3 17.46 C 19.175 km/h
228 29-09-2019 11:00:00 17.74167 C 11 g/m*3 17.74 C 17.84167 km/h
229 29-09-2019 12:00:00 18.25833 C 11.19 g/m*3 18.26 C 17.16667 km/h
230 29-09-2019 13:00:00 18.1 C 11.15 g/m*3 18.1 C 13.03333 km/h
231 29-09-2019 14:00:00 18.61667 C 10.9 g/m*3 18.62 C 21.325 km/h
232 29-09-2019 15:00:00 18.21667 C 11.38 g/m*3 18.22 C 17.44167 km/h
233 29-09-2019 16:00:00 17.10833 C 11.91 g/m*3 17.11 C 13.025 km/h
234 29-09-2019 17:00:00 17 C 11.93 g/m*3 17 C 12.35833 km/h
235 29-09-2019 18:00:00 17.5 C 12.36 g/m*3 17.5 C 12.1 km/h
236 29-09-2019 19:00:00 17.70833 C 12.54 g/m*3 17.71 C 15.56667 km/h
237 29-09-2019 20:00:00 17.275 C 12.96 g/m*3 17.27 C 5.9 km/h
238 29-09-2019 21:00:00 16.79167 C 13.17 g/m*3 16.79 C 5.63333 km/h
239 29-09-2019 22:00:00 16.91667 C 13.29 g/m*3 16.92 C 12.08333 km/h
240 29-09-2019 23:00:00 16.61667 C 13 g/m*3 16.62 C 14.49167 km/h
241 30-09-2019 00:00:00 15.65 C 11.66 g/m*3 15.65 C 18.11667 km/h
242 30-09-2019 01:00:00 15.34167 C 11.27 g/m*3 15.34 C 18.225 km/h
243 30-09-2019 02:00:00 15.15833 C 11.2 g/m*3 15.16 C 17.03333 km/h
244 30-09-2019 03:00:00 15.25833 C 11.31 g/m*3 15.26 C 15.3 km/h
245 30-09-2019 04:00:00 15.04167 C 11.38 g/m*3 15.04 C 11.95 km/h
246 30-09-2019 05:00:00 13.75833 C 10.95 g/m*3 13.76 C 9.925 km/h
247 30-09-2019 06:00:00 13.19167 C 10.65 g/m*3 13.19 C 9.93333 km/h
248 30-09-2019 07:00:00 13.08333 C 10.34 g/m*3 13.08 C 10.08333 km/h
249 30-09-2019 08:00:00 13.29167 C 10.07 g/m*3 13.29 C 12.1 km/h
250 30-09-2019 09:00:00 13.94167 C 10 g/m*3 13.94 C 13.3 km/h
Sensor: Nr:Datum:Temp:Abs-Feuchte:Windchill:Wind:
Aussen-T/F 251 30-09-2019 10:00:00 14.45 C 10.08 g/m*3 14.45 C 14.5 km/h
252 30-09-2019 11:00:00 15.13333 C 10.09 g/m*3 15.13 C 15.16667 km/h
253 30-09-2019 12:00:00 15.71667 C 9.81 g/m*3 15.72 C 16.76667 km/h
254 30-09-2019 13:00:00 16.40833 C 9.68 g/m*3 16.41 C 15.56667 km/h
255 30-09-2019 14:00:00 17.10833 C 9.71 g/m*3 17.11 C 14.23333 km/h
256 30-09-2019 15:00:00 17.75833 C 9.83 g/m*3 17.76 C 14.63333 km/h
257 30-09-2019 16:00:00 18.45833 C 9.85 g/m*3 18.46 C 14.36667 km/h
258 30-09-2019 17:00:00 18.45 C 9.54 g/m*3 18.45 C 12.1 km/h
259 30-09-2019 18:00:00 17.69167 C 10.24 g/m*3 17.69 C 3.34167 km/h
260 30-09-2019 19:00:00 14.83333 C 10.22 g/m*3 14.83 C 0.4 km/h
261 30-09-2019 20:00:00 14.20833 C 10.42 g/m*3 14.21 C 3.34167 km/h
262 30-09-2019 21:00:00 14.69167 C 10.71 g/m*3 14.69 C 3.74167 km/h
263 30-09-2019 22:00:00 14.68333 C 10.7 g/m*3 14.68 C 3.6 km/h
264 30-09-2019 23:00:00 14.23333 C 10.44 g/m*3 14.23 C 1.06667 km/h
265 01-10-2019 00:00:00 14.33333 C 10.41 g/m*3 14.33 C 0.4 km/h
266 01-10-2019 01:00:00 14.025 C 10.47 g/m*3 14.03 C 1.2 km/h
267 01-10-2019 02:00:00 13.60833 C 10.24 g/m*3 13.61 C 0 km/h
268 01-10-2019 03:00:00 12.65 C 9.88 g/m*3 12.65 C 0 km/h
269 01-10-2019 04:00:00 13.275 C 10.3 g/m*3 13.28 C 3.48333 km/h
270 01-10-2019 05:00:00 14.40833 C 10.55 g/m*3 14.41 C 7.8 km/h
271 01-10-2019 06:00:00 15.00833 C 10.98 g/m*3 15.01 C 11.55833 km/h
272 01-10-2019 07:00:00 15.375 C 11.38 g/m*3 15.38 C 15.56667 km/h
273 01-10-2019 08:00:00 15.5 C 11.54 g/m*3 15.5 C 14.1 km/h
274 01-10-2019 09:00:00 16.125 C 11.82 g/m*3 16.13 C 13.7 km/h
275 01-10-2019 10:00:00 17.09167 C 12.35 g/m*3 17.09 C 14.9 km/h
Sensor: Nr:Datum:Temp:Abs-Feuchte:Windchill:Wind:
Aussen-T/F 276 01-10-2019 11:00:00 17.53333 C 12.69 g/m*3 17.53 C 14.63333 km/h
277 01-10-2019 12:00:00 17.36667 C 13.11 g/m*3 17.37 C 12.225 km/h
278 01-10-2019 13:00:00 18.575 C 12.46 g/m*3 18.58 C 9.41667 km/h
279 01-10-2019 14:00:00 18.35833 C 13.01 g/m*3 18.36 C 8.34167 km/h
280 01-10-2019 15:00:00 19.08333 C 13.57 g/m*3 19.08 C 11.425 km/h
281 01-10-2019 16:00:00 18.26667 C 13.78 g/m*3 18.27 C 5.775 km/h
282 01-10-2019 17:00:00 17.6 C 13.95 g/m*3 17.6 C 0.66667 km/h
283 01-10-2019 18:00:00 16.725 C 13.21 g/m*3 16.73 C 1.2 km/h
284 01-10-2019 19:00:00 16.19167 C 12.98 g/m*3 16.19 C 0 km/h
285 01-10-2019 20:00:00 15.875 C 12.82 g/m*3 15.88 C 0.66667 km/h
286 01-10-2019 21:00:00 15.85 C 12.85 g/m*3 15.85 C 1.46667 km/h
287 01-10-2019 22:00:00 15.5 C 12.56 g/m*3 15.5 C 1.60833 km/h
288 01-10-2019 23:00:00 15.225 C 12.35 g/m*3 15.23 C 3.06667 km/h
289 02-10-2019 00:00:00 15.15833 C 12.3 g/m*3 15.16 C 3.35833 km/h
290 02-10-2019 01:00:00 15.20833 C 12.24 g/m*3 15.21 C 4.14167 km/h
291 02-10-2019 02:00:00 14.975 C 12 g/m*3 14.98 C 1.2 km/h
292 02-10-2019 03:00:00 14.95833 C 11.96 g/m*3 14.96 C 7.26667 km/h
293 02-10-2019 04:00:00 15.08333 C 11.86 g/m*3 15.08 C 4.55 km/h
294 02-10-2019 05:00:00 14.69167 C 11.66 g/m*3 14.69 C 3.48333 km/h
295 02-10-2019 06:00:00 13.59167 C 10.82 g/m*3 13.59 C 10.2 km/h
296 02-10-2019 07:00:00 11.80833 C 9.71 g/m*3 11.81 C 11.3 km/h
297 02-10-2019 08:00:00 10.74167 C 9.16 g/m*3 9.02 C 13.43333 km/h
298 02-10-2019 09:00:00 10.46667 C 8.8 g/m*3 9.65 C 7.51667 km/h
299 02-10-2019 10:00:00 10.86667 C 8.73 g/m*3 10.04 C 7.91667 km/h
300 02-10-2019 11:00:00 11.33333 C 8.56 g/m*3 11.33 C 11.01667 km/h
Sensor: Nr:Datum:Temp:Abs-Feuchte:Windchill:Wind:
Aussen-T/F 301 02-10-2019 12:00:00 11.86667 C 8.52 g/m*3 11.87 C 9.125 km/h
302 02-10-2019 13:00:00 12.65833 C 8.48 g/m*3 12.66 C 9.54167 km/h
303 02-10-2019 14:00:00 13.49167 C 8.19 g/m*3 13.49 C 9.55833 km/h
304 02-10-2019 15:00:00 13.66667 C 7.87 g/m*3 13.67 C 11.825 km/h
305 02-10-2019 16:00:00 13.8 C 7.37 g/m*3 13.8 C 14.1 km/h
306 02-10-2019 17:00:00 14.26667 C 7.55 g/m*3 14.27 C 12.21667 km/h
307 02-10-2019 18:00:00 12.9 C 7.68 g/m*3 12.9 C 10.89167 km/h
308 02-10-2019 19:00:00 11.325 C 7.61 g/m*3 11.33 C 5.76667 km/h
309 02-10-2019 20:00:00 10.04167 C 7.5 g/m*3 10.04 C 4.825 km/h
310 02-10-2019 21:00:00 9.875 C 7.51 g/m*3 9.88 C 3.20833 km/h
311 02-10-2019 22:00:00 8.61667 C 7.37 g/m*3 8.62 C 0.66667 km/h
312 02-10-2019 23:00:00 8.48333 C 7.43 g/m*3 8.48 C 3.875 km/h
313 03-10-2019 00:00:00 9.33333 C 7.66 g/m*3 9.33 C 4.41667 km/h
314 03-10-2019 01:00:00 9.25833 C 7.75 g/m*3 9.26 C 4.68333 km/h
315 03-10-2019 02:00:00 9.21667 C 7.73 g/m*3 9.22 C 3.73333 km/h
316 03-10-2019 03:00:00 8.525 C 7.52 g/m*3 8.53 C 1.86667 km/h
317 03-10-2019 04:00:00 7.63333 C 7.29 g/m*3 7.63 C 1.33333 km/h
318 03-10-2019 05:00:00 7.94167 C 7.49 g/m*3 7.94 C 4.41667 km/h
319 03-10-2019 06:00:00 7.45 C 7.26 g/m*3 7.45 C 1.2 km/h
320 03-10-2019 07:00:00 7.2 C 7.29 g/m*3 7.2 C 1.6 km/h
321 03-10-2019 08:00:00 7.74167 C 7.49 g/m*3 7.74 C 4.96667 km/h
322 03-10-2019 09:00:00 9.34167 C 7.9 g/m*3 8.53 C 6.70833 km/h
323 03-10-2019 10:00:00 10.36667 C 8.23 g/m*3 9.45 C 7.925 km/h
324 03-10-2019 11:00:00 12.23333 C 8.75 g/m*3 12.23 C 8.725 km/h
325 03-10-2019 12:00:00 12.55833 C 9.02 g/m*3 12.56 C 6.16667 km/h
Sensor: Nr:Datum:Temp:Abs-Feuchte:Windchill:Wind:
Aussen-T/F 326 03-10-2019 13:00:00 12.225 C 9.57 g/m*3 12.23 C 0.13333 km/h
327 03-10-2019 14:00:00 11.68333 C 9.65 g/m*3 11.68 C 0.8 km/h
328 03-10-2019 15:00:00 11.88333 C 10.01 g/m*3 11.88 C 0.8 km/h
329 03-10-2019 16:00:00 12.15833 C 10.02 g/m*3 12.16 C 2.41667 km/h
330 03-10-2019 17:00:00 11.75833 C 9.81 g/m*3 11.76 C 0 km/h
331 03-10-2019 18:00:00 10.81667 C 9.3 g/m*3 10.82 C 1.06667 km/h
332 03-10-2019 19:00:00 9.90833 C 8.84 g/m*3 9.91 C 0.8 km/h
333 03-10-2019 20:00:00 9.36667 C 8.58 g/m*3 9.37 C 0 km/h
334 03-10-2019 21:00:00 9.00833 C 8.45 g/m*3 9.01 C 0 km/h
335 03-10-2019 22:00:00 8.625 C 8.26 g/m*3 8.63 C 0 km/h
336 03-10-2019 23:00:00 8.375 C 8.13 g/m*3 8.38 C 0 km/h
337 04-10-2019 00:00:00 8.38333 C 8.14 g/m*3 8.38 C 0 km/h
338 04-10-2019 01:00:00 8.21667 C 8.07 g/m*3 8.22 C 0.13333 km/h
339 04-10-2019 02:00:00 8.19167 C 8.08 g/m*3 8.19 C 0 km/h
340 04-10-2019 03:00:00 8.05833 C 8.04 g/m*3 8.06 C 0 km/h
341 04-10-2019 04:00:00 7.71667 C 7.86 g/m*3 7.72 C 0 km/h
342 04-10-2019 05:00:00 7.90833 C 7.97 g/m*3 7.91 C 0 km/h
343 04-10-2019 06:00:00 7.96667 C 8 g/m*3 7.97 C 0.93333 km/h
344 04-10-2019 07:00:00 8.13333 C 8.09 g/m*3 8.13 C 2.68333 km/h
345 04-10-2019 08:00:00 8.45833 C 8.26 g/m*3 8.46 C 1.06667 km/h
346 04-10-2019 09:00:00 8.70833 C 8.39 g/m*3 8.71 C 0.8 km/h
347 04-10-2019 10:00:00 9.125 C 8.61 g/m*3 9.13 C 3.875 km/h
348 04-10-2019 11:00:00 9.75833 C 8.88 g/m*3 9.26 C 5.75833 km/h
349 04-10-2019 12:00:00 10.65 C 9.33 g/m*3 10.65 C 3.06667 km/h
350 04-10-2019 13:00:00 11.25833 C 9.61 g/m*3 11.26 C 2 km/h
Sensor: Nr:Datum:Temp:Abs-Feuchte:Windchill:Wind:
Aussen-T/F 351 04-10-2019 14:00:00 13.03333 C 10.33 g/m*3 13.03 C 7.53333 km/h
352 04-10-2019 15:00:00 13.81667 C 10.48 g/m*3 13.82 C 6.98333 km/h
353 04-10-2019 16:00:00 14.05833 C 10.83 g/m*3 14.06 C 1.875 km/h
354 04-10-2019 17:00:00 13.36667 C 10.78 g/m*3 13.37 C 2.13333 km/h
355 04-10-2019 18:00:00 12.35833 C 10.26 g/m*3 12.36 C 1.46667 km/h
356 04-10-2019 19:00:00 11.70833 C 9.98 g/m*3 11.71 C 1.06667 km/h
357 04-10-2019 20:00:00 11.63333 C 10 g/m*3 11.63 C 2.53333 km/h
358 04-10-2019 21:00:00 11.65833 C 10.01 g/m*3 11.66 C 5.775 km/h
359 04-10-2019 22:00:00 11.69167 C 9.97 g/m*3 11.69 C 4.29167 km/h
360 04-10-2019 23:00:00 11.71667 C 9.99 g/m*3 11.72 C 5.9 km/h
361 05-10-2019 00:00:00 11.96667 C 9.86 g/m*3 11.97 C 7.10833 km/h
362 05-10-2019 01:00:00 12.09167 C 9.86 g/m*3 12.09 C 6.85833 km/h
363 05-10-2019 02:00:00 12.225 C 9.8 g/m*3 12.23 C 7.64167 km/h
364 05-10-2019 03:00:00 12.3 C 9.94 g/m*3 12.3 C 3.20833 km/h
365 05-10-2019 04:00:00 11.55 C 9.64 g/m*3 11.55 C 5.90833 km/h
366 05-10-2019 05:00:00 10.75833 C 9.21 g/m*3 10.24 C 6.44167 km/h
367 05-10-2019 06:00:00 10.20833 C 8.93 g/m*3 10.21 C 2.275 km/h
368 05-10-2019 07:00:00 9.98333 C 8.77 g/m*3 9.98 C 3.6 km/h
369 05-10-2019 08:00:00 9.81667 C 8.54 g/m*3 9.82 C 2.26667 km/h
370 05-10-2019 09:00:00 10.18333 C 8.62 g/m*3 10.18 C 4.94167 km/h
371 05-10-2019 10:00:00 10.55833 C 8.61 g/m*3 9.6 C 8.325 km/h
372 05-10-2019 11:00:00 10.70833 C 8.11 g/m*3 9.72 C 8.60833 km/h
373 05-10-2019 12:00:00 11.2 C 8.17 g/m*3 11.2 C 6.575 km/h
374 05-10-2019 13:00:00 11.9 C 8.22 g/m*3 11.9 C 4.26667 km/h
375 05-10-2019 14:00:00 11.89167 C 8.27 g/m*3 11.89 C 2.40833 km/h
Sensor: Nr:Datum:Temp:Abs-Feuchte:Windchill:Wind:
Aussen-T/F 376 05-10-2019 15:00:00 12.23333 C 8.36 g/m*3 12.23 C 0.93333 km/h
377 05-10-2019 16:00:00 12.3 C 8.75 g/m*3 12.3 C 0.66667 km/h
378 05-10-2019 17:00:00 12.06667 C 9 g/m*3 12.07 C 0.13333 km/h
379 05-10-2019 18:00:00 11.125 C 8.64 g/m*3 11.13 C 0 km/h
380 05-10-2019 19:00:00 9.50833 C 7.87 g/m*3 9.51 C 0.4 km/h
381 05-10-2019 20:00:00 8.35833 C 7.46 g/m*3 8.36 C 1.33333 km/h
382 05-10-2019 21:00:00 7.875 C 7.44 g/m*3 7.88 C 0 km/h
383 05-10-2019 22:00:00 7.43333 C 7.44 g/m*3 7.43 C 0 km/h
384 05-10-2019 23:00:00 7.35 C 7.45 g/m*3 7.35 C 0 km/h
385 06-10-2019 00:00:00 7.13333 C 7.36 g/m*3 7.13 C 0 km/h
386 06-10-2019 01:00:00 6.55 C 7.11 g/m*3 6.55 C 0 km/h
387 06-10-2019 02:00:00 6.7 C 7.26 g/m*3 6.7 C 0 km/h
388 06-10-2019 03:00:00 7.05833 C 7.47 g/m*3 7.06 C 0 km/h
389 06-10-2019 04:00:00 7.2 C 7.54 g/m*3 7.2 C 0 km/h
390 06-10-2019 05:00:00 7.18333 C 7.53 g/m*3 7.18 C 0 km/h
391 06-10-2019 06:00:00 7.38333 C 7.63 g/m*3 7.38 C 0 km/h
392 06-10-2019 07:00:00 7.65833 C 7.76 g/m*3 7.66 C 0 km/h
393 06-10-2019 08:00:00 7.84167 C 7.86 g/m*3 7.84 C 0 km/h
394 06-10-2019 09:00:00 8.31667 C 8.1 g/m*3 8.32 C 0 km/h
395 06-10-2019 10:00:00 8.63333 C 8.22 g/m*3 8.63 C 0.8 km/h
396 06-10-2019 11:00:00 8.55833 C 8.21 g/m*3 8.56 C 3.6 km/h
397 06-10-2019 12:00:00 8.78333 C 8.35 g/m*3 8.78 C 0.26667 km/h
398 06-10-2019 13:00:00 9.06667 C 8.5 g/m*3 9.07 C 0.66667 km/h
399 06-10-2019 14:00:00 9.25 C 8.6 g/m*3 9.25 C 1.06667 km/h
400 06-10-2019 15:00:00 9.45833 C 8.72 g/m*3 9.46 C 0.53333 km/h
Sensor: Nr:Datum:Temp:Abs-Feuchte:Windchill:Wind:
Aussen-T/F 401 06-10-2019 16:00:00 9.61667 C 8.8 g/m*3 9.62 C 1.86667 km/h
402 06-10-2019 17:00:00 9.51667 C 8.75 g/m*3 9.52 C 0.53333 km/h
403 06-10-2019 18:00:00 9.325 C 8.64 g/m*3 9.32 C 3.225 km/h
404 06-10-2019 19:00:00 9.15 C 8.57 g/m*3 9.15 C 3.60833 km/h
405 06-10-2019 20:00:00 9.1 C 8.61 g/m*3 9.1 C 0.4 km/h
406 06-10-2019 21:00:00 9.04167 C 8.57 g/m*3 9.04 C 1.74167 km/h
407 06-10-2019 22:00:00 8.81667 C 8.45 g/m*3 8.82 C 1.875 km/h
408 06-10-2019 23:00:00 8.83333 C 8.46 g/m*3 8.83 C 0 km/h
409 07-10-2019 00:00:00 8.9 C 8.5 g/m*3 8.9 C 0.26667 km/h
410 07-10-2019 01:00:00 8.725 C 8.4 g/m*3 8.73 C 2.95 km/h
411 07-10-2019 02:00:00 8.69167 C 8.38 g/m*3 8.69 C 0.13333 km/h
412 07-10-2019 03:00:00 8.60833 C 8.34 g/m*3 8.61 C 1.33333 km/h
413 07-10-2019 04:00:00 8.7 C 8.39 g/m*3 8.7 C 0 km/h
414 07-10-2019 05:00:00 8.64167 C 8.36 g/m*3 8.64 C 1.86667 km/h
415 07-10-2019 06:00:00 8.6 C 8.34 g/m*3 8.6 C 0.13333 km/h
416 07-10-2019 07:00:00 8.6 C 8.34 g/m*3 8.6 C 0 km/h
417 07-10-2019 08:00:00 8.66667 C 8.37 g/m*3 8.67 C 0 km/h
418 07-10-2019 09:00:00 8.83333 C 8.46 g/m*3 8.83 C 0.26667 km/h
419 07-10-2019 10:00:00 9.08333 C 8.6 g/m*3 9.08 C 1.06667 km/h
420 07-10-2019 11:00:00 9.65 C 8.88 g/m*3 9.65 C 3.34167 km/h
421 07-10-2019 12:00:00 10.51667 C 9.05 g/m*3 10.52 C 2.4 km/h
422 07-10-2019 13:00:00 10.84167 C 9 g/m*3 10.84 C 2.675 km/h
423 07-10-2019 14:00:00 11.46667 C 9.1 g/m*3 11.47 C 5.89167 km/h
424 07-10-2019 15:00:00 12.225 C 9.43 g/m*3 12.23 C 1.86667 km/h
425 07-10-2019 16:00:00 12.29167 C 9.53 g/m*3 12.29 C 1.33333 km/h
Sensor: Nr:Datum:Temp:Abs-Feuchte:Windchill:Wind:
Aussen-T/F 426 07-10-2019 17:00:00 12.3 C 9.56 g/m*3 12.3 C 2.4 km/h
427 07-10-2019 18:00:00 11.86667 C 9.56 g/m*3 11.87 C 0.53333 km/h
428 07-10-2019 19:00:00 11.09167 C 9.35 g/m*3 11.09 C 0 km/h
429 07-10-2019 20:00:00 10.725 C 9.32 g/m*3 10.73 C 0 km/h
430 07-10-2019 21:00:00 10.975 C 9.58 g/m*3 10.98 C 0 km/h
431 07-10-2019 22:00:00 11.1 C 9.67 g/m*3 11.1 C 0.26667 km/h
432 07-10-2019 23:00:00 11.1 C 9.67 g/m*3 11.1 C 0.26667 km/h
433 08-10-2019 00:00:00 11.11667 C 9.75 g/m*3 11.12 C 0.53333 km/h
434 08-10-2019 01:00:00 11.25 C 9.79 g/m*3 11.25 C 1.33333 km/h
435 08-10-2019 02:00:00 11.44167 C 9.88 g/m*3 11.44 C 0.93333 km/h
436 08-10-2019 03:00:00 11.75833 C 10.05 g/m*3 11.76 C 3.75833 km/h
437 08-10-2019 04:00:00 11.9 C 10.03 g/m*3 11.9 C 3.61667 km/h
438 08-10-2019 05:00:00 12.31667 C 10 g/m*3 12.32 C 8.46667 km/h
439 08-10-2019 06:00:00 12.18333 C 9.96 g/m*3 12.18 C 4.3 km/h
440 08-10-2019 07:00:00 11.79167 C 9.97 g/m*3 11.79 C 2.53333 km/h
441 08-10-2019 08:00:00 11.825 C 10.1 g/m*3 11.83 C 5.775 km/h
442 08-10-2019 09:00:00 12.03333 C 10.25 g/m*3 12.03 C 10.05833 km/h
443 08-10-2019 10:00:00 12.49167 C 10.45 g/m*3 12.49 C 12.76667 km/h
444 08-10-2019 11:00:00 13.5 C 10.89 g/m*3 13.5 C 13.7 km/h
445 08-10-2019 12:00:00 13.85833 C 10.95 g/m*3 13.86 C 14.36667 km/h
446 08-10-2019 13:00:00 14.225 C 11.19 g/m*3 14.23 C 9.93333 km/h
447 08-10-2019 14:00:00 14.6 C 11.43 g/m*3 14.6 C 10.075 km/h
448 08-10-2019 15:00:00 14.48333 C 11.47 g/m*3 14.48 C 9.55 km/h
449 08-10-2019 16:00:00 14.225 C 11.56 g/m*3 14.23 C 6.70833 km/h
450 08-10-2019 17:00:00 14.05833 C 11.55 g/m*3 14.06 C 3.61667 km/h
Sensor: Nr:Datum:Temp:Abs-Feuchte:Windchill:Wind:
Aussen-T/F 451 08-10-2019 18:00:00 13.86667 C 11.49 g/m*3 13.87 C 3.09167 km/h
452 08-10-2019 19:00:00 13.79167 C 11.43 g/m*3 13.79 C 1.875 km/h
453 08-10-2019 20:00:00 13.55 C 11.3 g/m*3 13.55 C 0.53333 km/h
454 08-10-2019 21:00:00 13.225 C 11.14 g/m*3 13.23 C 0.13333 km/h
455 08-10-2019 22:00:00 12.825 C 10.88 g/m*3 12.83 C 0 km/h
456 08-10-2019 23:00:00 11.68333 C 10.05 g/m*3 11.68 C 0.53333 km/h
457 09-10-2019 00:00:00 10.78333 C 9.56 g/m*3 10.78 C 0.13333 km/h
458 09-10-2019 01:00:00 10.34167 C 9.31 g/m*3 10.34 C 0.13333 km/h
459 09-10-2019 02:00:00 10.35 C 9.33 g/m*3 10.35 C 1.2 km/h
460 09-10-2019 03:00:00 10.625 C 9.52 g/m*3 10.63 C 3.35833 km/h
461 09-10-2019 04:00:00 10.98333 C 9.72 g/m*3 10.77 C 5.36667 km/h
462 09-10-2019 05:00:00 10.79167 C 9.58 g/m*3 10.59 C 5.225 km/h
463 09-10-2019 06:00:00 10.925 C 9.66 g/m*3 10.37 C 6.69167 km/h
464 09-10-2019 07:00:00 10.64167 C 9.4 g/m*3 10.64 C 4.54167 km/h
465 09-10-2019 08:00:00 10.73333 C 9.48 g/m*3 10.73 C 4.95833 km/h
466 09-10-2019 09:00:00 11.2 C 9.76 g/m*3 11.2 C 5.36667 km/h
467 09-10-2019 10:00:00 12.55 C 10.19 g/m*3 12.55 C 7.38333 km/h
468 09-10-2019 11:00:00 13.55833 C 10.43 g/m*3 13.56 C 3.46667 km/h
469 09-10-2019 12:00:00 13.90833 C 10.64 g/m*3 13.91 C 5.225 km/h
470 09-10-2019 13:00:00 13.59167 C 10.87 g/m*3 13.59 C 1.34167 km/h
471 09-10-2019 14:00:00 12.925 C 10.43 g/m*3 12.93 C 3.74167 km/h
472 09-10-2019 15:00:00 12.28333 C 10.09 g/m*3 12.28 C 9.01667 km/h
473 09-10-2019 16:00:00 12.775 C 10.02 g/m*3 12.78 C 8.86667 km/h
474 09-10-2019 17:00:00 12.975 C 9.81 g/m*3 12.98 C 10.20833 km/h
475 09-10-2019 18:00:00 12.525 C 9.54 g/m*3 12.53 C 11.28333 km/h
Sensor: Nr:Datum:Temp:Abs-Feuchte:Windchill:Wind:
Aussen-T/F 476 09-10-2019 19:00:00 11.84167 C 9.37 g/m*3 11.84 C 9.675 km/h
477 09-10-2019 20:00:00 11.20833 C 9.09 g/m*3 11.21 C 6.3 km/h
478 09-10-2019 21:00:00 11.06667 C 9.07 g/m*3 11.07 C 8.2 km/h
479 09-10-2019 22:00:00 11.10833 C 8.69 g/m*3 11.11 C 14.23333 km/h
480 09-10-2019 23:00:00 10.8 C 8.53 g/m*3 9.33 C 11.7 km/h
481 10-10-2019 00:00:00 10.375 C 8.45 g/m*3 8.64 C 12.89167 km/h
482 10-10-2019 01:00:00 10.15833 C 8.49 g/m*3 9.61 C 6.15833 km/h
483 10-10-2019 02:00:00 10.39167 C 8.71 g/m*3 10.39 C 4.825 km/h
484 10-10-2019 03:00:00 10.68333 C 8.93 g/m*3 10.68 C 4.81667 km/h
485 10-10-2019 04:00:00 10.56667 C 8.95 g/m*3 9.64 C 8.18333 km/h
486 10-10-2019 05:00:00 10.40833 C 9.02 g/m*3 10.41 C 3.2 km/h
487 10-10-2019 06:00:00 10.44167 C 9.05 g/m*3 10.11 C 5.49167 km/h
488 10-10-2019 07:00:00 10.09167 C 8.79 g/m*3 9.37 C 6.84167 km/h
489 10-10-2019 08:00:00 9.81667 C 8.56 g/m*3 8.93 C 7.375 km/h
490 10-10-2019 09:00:00 10.675 C 8.79 g/m*3 9.59 C 9.13333 km/h
491 10-10-2019 10:00:00 11.29167 C 8.88 g/m*3 11.29 C 11.825 km/h
492 10-10-2019 11:00:00 12.33333 C 9.13 g/m*3 12.33 C 12.89167 km/h
493 10-10-2019 12:00:00 13.35 C 9.1 g/m*3 13.35 C 14.1 km/h
494 10-10-2019 13:00:00 14.28333 C 8.73 g/m*3 14.28 C 16.5 km/h
495 10-10-2019 14:00:00 14.53333 C 9.12 g/m*3 14.53 C 12.20833 km/h
496 10-10-2019 15:00:00 15.09167 C 9.33 g/m*3 15.09 C 12.76667 km/h
497 10-10-2019 16:00:00 15.37778 C 9.32 g/m*3 15.38 C 12.01111 km/h
498 10-10-2019 17:00:00 13.83333 C 9.62 g/m*3 13.83 C 9.675 km/h
499 10-10-2019 18:00:00 13.18333 C 9.53 g/m*3 13.18 C 4.15 km/h
500 10-10-2019 19:00:00 11.68333 C 9.19 g/m*3 11.68 C 3.475 km/h
Sensor: Nr:Datum:Temp:Abs-Feuchte:Windchill:Wind:
Aussen-T/F 501 10-10-2019 20:00:00 11.69167 C 9.23 g/m*3 11.69 C 4.95 km/h
502 10-10-2019 21:00:00 10.88333 C 9 g/m*3 10.88 C 0.26667 km/h
503 10-10-2019 22:00:00 10.18333 C 8.9 g/m*3 10.18 C 0.13333 km/h
504 10-10-2019 23:00:00 9.8 C 8.77 g/m*3 9.8 C 0.93333 km/h
505 11-10-2019 00:00:00 9.575 C 8.73 g/m*3 9.57 C 1.06667 km/h
506 11-10-2019 01:00:00 9.19167 C 8.52 g/m*3 9.19 C 0.8 km/h
507 11-10-2019 02:00:00 8.83333 C 8.36 g/m*3 8.83 C 0 km/h
508 11-10-2019 03:00:00 8.98333 C 8.48 g/m*3 8.98 C 1.74167 km/h
509 11-10-2019 04:00:00 9.49167 C 8.72 g/m*3 9.49 C 3.86667 km/h
510 11-10-2019 05:00:00 9.45833 C 8.62 g/m*3 9.46 C 2.40833 km/h
511 11-10-2019 06:00:00 9.43333 C 8.6 g/m*3 9.43 C 0.4 km/h
512 11-10-2019 07:00:00 9.91667 C 8.89 g/m*3 9.92 C 1.60833 km/h
513 11-10-2019 08:00:00 10.98333 C 9.5 g/m*3 10.98 C 2.80833 km/h
514 11-10-2019 09:00:00 12.425 C 10.21 g/m*3 12.43 C 3.21667 km/h
515 11-10-2019 10:00:00 13.35833 C 10.58 g/m*3 13.36 C 3.34167 km/h
516 11-10-2019 11:00:00 14.85833 C 10.83 g/m*3 14.86 C 11.68333 km/h
517 11-10-2019 12:00:00 15.85 C 10.72 g/m*3 15.85 C 16.1 km/h
518 11-10-2019 13:00:00 16.39167 C 10.82 g/m*3 16.39 C 11.15 km/h
519 11-10-2019 14:00:00 16.29167 C 10.86 g/m*3 16.29 C 11.275 km/h
520 11-10-2019 15:00:00 16.56667 C 10.9 g/m*3 16.57 C 11.03333 km/h
521 11-10-2019 16:00:00 16.6 C 11.02 g/m*3 16.6 C 10.61667 km/h
522 11-10-2019 17:00:00 16.66667 C 11.09 g/m*3 16.67 C 9 km/h
523 11-10-2019 18:00:00 16.04167 C 11.1 g/m*3 16.04 C 4.03333 km/h
524 11-10-2019 19:00:00 14.19167 C 10.81 g/m*3 14.19 C 0.4 km/h
525 11-10-2019 20:00:00 13.55833 C 10.81 g/m*3 13.56 C 0 km/h
Sensor: Nr:Datum:Temp:Abs-Feuchte:Windchill:Wind:
Aussen-T/F 526 11-10-2019 21:00:00 12.80833 C 10.44 g/m*3 12.81 C 0 km/h
527 11-10-2019 22:00:00 12.075 C 10.11 g/m*3 12.08 C 0 km/h
528 11-10-2019 23:00:00 11.81667 C 10.03 g/m*3 11.82 C 0 km/h
529 12-10-2019 00:00:00 11.11667 C 9.59 g/m*3 11.12 C 0 km/h
530 12-10-2019 01:00:00 10.63333 C 9.39 g/m*3 10.63 C 0 km/h
531 12-10-2019 02:00:00 10.30833 C 9.2 g/m*3 10.31 C 0.13333 km/h
532 12-10-2019 03:00:00 9.95833 C 9 g/m*3 9.96 C 0 km/h
533 12-10-2019 04:00:00 10.01667 C 9.12 g/m*3 10.02 C 0 km/h
534 12-10-2019 05:00:00 9.58333 C 8.84 g/m*3 9.58 C 0 km/h
535 12-10-2019 06:00:00 8.89167 C 8.49 g/m*3 8.89 C 0 km/h
536 12-10-2019 07:00:00 8.74167 C 8.41 g/m*3 8.74 C 0 km/h
537 12-10-2019 08:00:00 8.86667 C 8.48 g/m*3 8.87 C 0 km/h
538 12-10-2019 09:00:00 9.28333 C 8.73 g/m*3 9.28 C 0.93333 km/h
539 12-10-2019 10:00:00 11.75 C 10.28 g/m*3 11.75 C 5.225 km/h
540 12-10-2019 11:00:00 14.25 C 11.36 g/m*3 14.25 C 9.80833 km/h
541 12-10-2019 12:00:00 16.45 C 11.47 g/m*3 16.45 C 7.79167 km/h
542 12-10-2019 13:00:00 17.975 C 11.63 g/m*3 17.98 C 11.825 km/h
543 12-10-2019 14:00:00 19.40833 C 11.8 g/m*3 19.41 C 13.56667 km/h
544 12-10-2019 15:00:00 19.93333 C 11.86 g/m*3 19.93 C 14.76667 km/h
545 12-10-2019 16:00:00 19.6 C 12.11 g/m*3 19.6 C 13.7 km/h
546 12-10-2019 17:00:00 18.85 C 12.1 g/m*3 18.85 C 9.26667 km/h
547 12-10-2019 18:00:00 17.225 C 12.21 g/m*3 17.23 C 0.26667 km/h
548 12-10-2019 19:00:00 15.61667 C 11.8 g/m*3 15.62 C 0 km/h
549 12-10-2019 20:00:00 14.93333 C 11.5 g/m*3 14.93 C 0 km/h
550 12-10-2019 21:00:00 14.51667 C 11.56 g/m*3 14.52 C 1.6 km/h
Sensor: Nr:Datum:Temp:Abs-Feuchte:Windchill:Wind:
Aussen-T/F 551 12-10-2019 22:00:00 14.925 C 11.72 g/m*3 14.93 C 0.26667 km/h
552 12-10-2019 23:00:00 14.375 C 11.54 g/m*3 14.38 C 0 km/h
553 13-10-2019 00:00:00 13.65 C 11.13 g/m*3 13.65 C 0.13333 km/h
554 13-10-2019 01:00:00 13.11667 C 10.87 g/m*3 13.12 C 0 km/h
555 13-10-2019 02:00:00 13.30833 C 11.14 g/m*3 13.31 C 0 km/h
556 13-10-2019 03:00:00 13.40833 C 11.18 g/m*3 13.41 C 0 km/h
557 13-10-2019 04:00:00 13 C 10.94 g/m*3 13 C 0.26667 km/h
558 13-10-2019 05:00:00 13.54167 C 11.37 g/m*3 13.54 C 0 km/h
559 13-10-2019 06:00:00 13.79167 C 11.55 g/m*3 13.79 C 0 km/h
560 13-10-2019 07:00:00 13.76667 C 11.53 g/m*3 13.77 C 0 km/h
561 13-10-2019 08:00:00 13.11667 C 11.08 g/m*3 13.12 C 0.4 km/h
562 13-10-2019 09:00:00 13.46667 C 11.38 g/m*3 13.47 C 0 km/h
563 13-10-2019 10:00:00 14.23333 C 11.98 g/m*3 14.23 C 0 km/h
564 13-10-2019 11:00:00 15.63333 C 13.06 g/m*3 15.63 C 1.2 km/h
565 13-10-2019 12:00:00 17.325 C 14.43 g/m*3 17.33 C 2.14167 km/h
566 13-10-2019 13:00:00 19.45833 C 15.3 g/m*3 19.46 C 2.00833 km/h
567 13-10-2019 14:00:00 21.65833 C 14.76 g/m*3 21.66 C 4.54167 km/h
568 13-10-2019 15:00:00 22.03333 C 14.76 g/m*3 22.03 C 4.025 km/h
569 13-10-2019 16:00:00 21.96667 C 14.92 g/m*3 21.97 C 2.54167 km/h
570 13-10-2019 17:00:00 21.125 C 14.87 g/m*3 21.13 C 0.93333 km/h
571 13-10-2019 18:00:00 19.51667 C 14.41 g/m*3 19.52 C 0.8 km/h
572 13-10-2019 19:00:00 18.45 C 13.93 g/m*3 18.45 C 0.4 km/h
573 13-10-2019 20:00:00 18.11667 C 13.66 g/m*3 18.12 C 0.26667 km/h
574 13-10-2019 21:00:00 17.41667 C 13.24 g/m*3 17.42 C 0.26667 km/h
575 13-10-2019 22:00:00 17.06667 C 12.86 g/m*3 17.07 C 0.13333 km/h
Sensor: Nr:Datum:Temp:Abs-Feuchte:Windchill:Wind:
Aussen-T/F 576 13-10-2019 23:00:00 16.56667 C 12.52 g/m*3 16.57 C 0.26667 km/h
577 14-10-2019 00:00:00 15.825 C 12.14 g/m*3 15.83 C 0 km/h
578 14-10-2019 01:00:00 15.41667 C 11.97 g/m*3 15.42 C 0 km/h
579 14-10-2019 02:00:00 14.91667 C 11.73 g/m*3 14.92 C 0 km/h
580 14-10-2019 03:00:00 14.14167 C 11.33 g/m*3 14.14 C 0.26667 km/h
581 14-10-2019 04:00:00 13.45833 C 11 g/m*3 13.46 C 0 km/h
582 14-10-2019 05:00:00 13.36667 C 11.08 g/m*3 13.37 C 0.26667 km/h
583 14-10-2019 06:00:00 12.9 C 10.73 g/m*3 12.9 C 0 km/h
584 14-10-2019 07:00:00 12.75 C 10.7 g/m*3 12.75 C 1.2 km/h
585 14-10-2019 08:00:00 12.88333 C 10.81 g/m*3 12.88 C 0 km/h
586 14-10-2019 09:00:00 13.24167 C 11.07 g/m*3 13.24 C 0 km/h
587 14-10-2019 10:00:00 13.64167 C 11.39 g/m*3 13.64 C 0 km/h
588 14-10-2019 11:00:00 14.90833 C 12.37 g/m*3 14.91 C 0 km/h
589 14-10-2019 12:00:00 16.49167 C 13.51 g/m*3 16.49 C 0 km/h
590 14-10-2019 13:00:00 18.55833 C 14.17 g/m*3 18.56 C 1.73333 km/h
591 14-10-2019 14:00:00 21.1 C 14.13 g/m*3 21.1 C 3.75 km/h
592 14-10-2019 15:00:00 21.11667 C 13.92 g/m*3 21.12 C 2.675 km/h
593 14-10-2019 16:00:00 20.775 C 13.38 g/m*3 20.78 C 2.81667 km/h
594 14-10-2019 17:00:00 19.81667 C 13.44 g/m*3 19.82 C 0 km/h
595 14-10-2019 18:00:00 18.93333 C 13.13 g/m*3 18.93 C 0.26667 km/h
596 14-10-2019 19:00:00 17.43333 C 12.92 g/m*3 17.43 C 0.26667 km/h
597 14-10-2019 20:00:00 16.71667 C 12.54 g/m*3 16.72 C 0.13333 km/h
598 14-10-2019 21:00:00 15.88333 C 12.05 g/m*3 15.88 C 0 km/h
599 14-10-2019 22:00:00 14.875 C 11.7 g/m*3 14.88 C 0.26667 km/h
600 14-10-2019 23:00:00 15.075 C 11.86 g/m*3 15.08 C 0.26667 km/h
Sensor: Nr:Datum:Temp:Abs-Feuchte:Windchill:Wind:
Aussen-T/F 601 15-10-2019 00:00:00 15.08333 C 11.86 g/m*3 15.08 C 0.13333 km/h
602 15-10-2019 01:00:00 14.4 C 11.41 g/m*3 14.4 C 0.13333 km/h
603 15-10-2019 02:00:00 13.43333 C 10.9 g/m*3 13.43 C 0 km/h
604 15-10-2019 03:00:00 12.725 C 10.54 g/m*3 12.73 C 0 km/h
605 15-10-2019 04:00:00 12.38333 C 10.41 g/m*3 12.38 C 0.8 km/h
606 15-10-2019 05:00:00 11.95833 C 10.18 g/m*3 11.96 C 0 km/h
607 15-10-2019 06:00:00 12.09167 C 10.35 g/m*3 12.09 C 0.26667 km/h
608 15-10-2019 07:00:00 11.96667 C 10.24 g/m*3 11.97 C 0 km/h
609 15-10-2019 08:00:00 11.79167 C 10.19 g/m*3 11.79 C 0 km/h
610 15-10-2019 09:00:00 12.36667 C 10.58 g/m*3 12.37 C 0 km/h
611 15-10-2019 10:00:00 13.25833 C 11.18 g/m*3 13.26 C 0.8 km/h
612 15-10-2019 11:00:00 15.375 C 12.54 g/m*3 15.38 C 2.54167 km/h
613 15-10-2019 12:00:00 17.68333 C 12.87 g/m*3 17.68 C 6.58333 km/h
614 15-10-2019 13:00:00 18.10833 C 12.43 g/m*3 18.11 C 9 km/h
615 15-10-2019 14:00:00 17.73333 C 12.25 g/m*3 17.73 C 7.11667 km/h
616 15-10-2019 15:00:00 17.21667 C 12.02 g/m*3 17.22 C 5.625 km/h
617 15-10-2019 16:00:00 16.65833 C 12.09 g/m*3 16.66 C 1.86667 km/h
618 15-10-2019 17:00:00 16.28333 C 12.2 g/m*3 16.28 C 0.13333 km/h
619 15-10-2019 18:00:00 15.11667 C 11.88 g/m*3 15.12 C 0.66667 km/h
620 15-10-2019 19:00:00 14.29167 C 11.58 g/m*3 14.29 C 0 km/h
621 15-10-2019 20:00:00 13.925 C 11.41 g/m*3 13.93 C 0 km/h
622 15-10-2019 21:00:00 13.65 C 11.27 g/m*3 13.65 C 0 km/h
623 15-10-2019 22:00:00 13.41667 C 11.17 g/m*3 13.42 C 2.275 km/h
624 15-10-2019 23:00:00 12.925 C 10.73 g/m*3 12.93 C 7.39167 km/h
625 16-10-2019 00:00:00 12.10833 C 10.18 g/m*3 12.11 C 3.48333 km/h
Sensor: Nr:Datum:Temp:Abs-Feuchte:Windchill:Wind:
Aussen-T/F 626 16-10-2019 01:00:00 11.85833 C 10.11 g/m*3 11.86 C 0.13333 km/h
627 16-10-2019 02:00:00 11.8 C 10.1 g/m*3 11.8 C 0.26667 km/h
628 16-10-2019 03:00:00 11.775 C 10.09 g/m*3 11.78 C 4.425 km/h
629 16-10-2019 04:00:00 11.625 C 9.99 g/m*3 11.63 C 2.675 km/h
630 16-10-2019 05:00:00 11.425 C 9.87 g/m*3 11.43 C 1.33333 km/h
631 16-10-2019 06:00:00 11.18333 C 9.63 g/m*3 11.18 C 6.975 km/h
632 16-10-2019 07:00:00 10.95833 C 9.38 g/m*3 10.96 C 2.26667 km/h
633 16-10-2019 08:00:00 10.65 C 9.2 g/m*3 10.65 C 2.81667 km/h
634 16-10-2019 09:00:00 10.925 C 9.44 g/m*3 10.93 C 1.6 km/h
635 16-10-2019 10:00:00 12.44167 C 9.99 g/m*3 12.44 C 3.2 km/h
636 16-10-2019 11:00:00 13.79167 C 10.29 g/m*3 13.79 C 5.9 km/h
637 16-10-2019 12:00:00 14.55 C 10.54 g/m*3 14.55 C 5.64167 km/h
638 16-10-2019 13:00:00 14.08333 C 11.05 g/m*3 14.08 C 0.53333 km/h
639 16-10-2019 14:00:00 13.51667 C 11.02 g/m*3 13.52 C 2.275 km/h
640 16-10-2019 15:00:00 13.91667 C 11.37 g/m*3 13.92 C 1.73333 km/h
641 16-10-2019 16:00:00 14.34167 C 11.6 g/m*3 14.34 C 2.4 km/h
642 16-10-2019 17:00:00 14.36667 C 11.66 g/m*3 14.37 C 0.26667 km/h
643 16-10-2019 18:00:00 13.90833 C 11.39 g/m*3 13.91 C 0.13333 km/h
644 16-10-2019 19:00:00 13.53333 C 11.25 g/m*3 13.53 C 0 km/h
645 16-10-2019 20:00:00 13.25 C 11.06 g/m*3 13.25 C 0.26667 km/h
646 16-10-2019 21:00:00 12.71667 C 10.7 g/m*3 12.72 C 0.26667 km/h
647 16-10-2019 22:00:00 12.55833 C 10.59 g/m*3 12.56 C 0.26667 km/h
648 16-10-2019 23:00:00 12.4 C 10.53 g/m*3 12.4 C 0.66667 km/h
649 17-10-2019 00:00:00 12.64167 C 10.65 g/m*3 12.64 C 0.26667 km/h
650 17-10-2019 01:00:00 12.61667 C 10.63 g/m*3 12.62 C 0.26667 km/h
Sensor: Nr:Datum:Temp:Abs-Feuchte:Windchill:Wind:
Aussen-T/F 651 17-10-2019 02:00:00 12.375 C 10.47 g/m*3 12.38 C 0.26667 km/h
652 17-10-2019 03:00:00 12.76667 C 10.67 g/m*3 12.77 C 1.2 km/h
653 17-10-2019 04:00:00 13.575 C 10.86 g/m*3 13.58 C 1.6 km/h
654 17-10-2019 05:00:00 14.19167 C 10.9 g/m*3 14.19 C 3.20833 km/h
655 17-10-2019 06:00:00 14.23333 C 10.88 g/m*3 14.23 C 4.00833 km/h
656 17-10-2019 07:00:00 14.24167 C 10.97 g/m*3 14.24 C 2.68333 km/h
657 17-10-2019 08:00:00 14.58333 C 10.96 g/m*3 14.58 C 6.85 km/h
658 17-10-2019 09:00:00 15.36667 C 11.12 g/m*3 15.37 C 7.39167 km/h
659 17-10-2019 10:00:00 15.86667 C 11.24 g/m*3 15.87 C 9.39167 km/h
660 17-10-2019 11:00:00 16.65833 C 11.61 g/m*3 16.66 C 3.88333 km/h
661 17-10-2019 12:00:00 16.65833 C 11.92 g/m*3 16.66 C 2.26667 km/h
662 17-10-2019 13:00:00 16.81667 C 11.88 g/m*3 16.82 C 5.50833 km/h
663 17-10-2019 14:00:00 16.84167 C 12.29 g/m*3 16.84 C 0.93333 km/h
664 17-10-2019 15:00:00 16.63333 C 12.31 g/m*3 16.63 C 0.8 km/h
665 17-10-2019 16:00:00 15.85 C 12.31 g/m*3 15.85 C 0.26667 km/h
666 17-10-2019 17:00:00 15.14167 C 12.15 g/m*3 15.14 C 0.13333 km/h
667 17-10-2019 18:00:00 14.61667 C 11.9 g/m*3 14.62 C 0.26667 km/h
668 17-10-2019 19:00:00 14.15833 C 11.65 g/m*3 14.16 C 0 km/h
669 17-10-2019 20:00:00 14.08333 C 11.64 g/m*3 14.08 C 0.4 km/h
670 17-10-2019 21:00:00 13.9 C 11.6 g/m*3 13.9 C 0.53333 km/h
671 17-10-2019 22:00:00 13.85 C 11.59 g/m*3 13.85 C 0.13333 km/h
672 17-10-2019 23:00:00 13.89167 C 11.62 g/m*3 13.89 C 0.66667 km/h
673 18-10-2019 00:00:00 13.825 C 11.58 g/m*3 13.83 C 0.93333 km/h
674 18-10-2019 01:00:00 12.83333 C 10.88 g/m*3 12.83 C 0.4 km/h
675 18-10-2019 02:00:00 12.125 C 10.42 g/m*3 12.13 C 0 km/h
Sensor: Nr:Datum:Temp:Abs-Feuchte:Windchill:Wind:
Aussen-T/F 676 18-10-2019 03:00:00 11.58333 C 10.07 g/m*3 11.58 C 0.4 km/h
677 18-10-2019 04:00:00 11.49167 C 10.01 g/m*3 11.49 C 0.26667 km/h
678 18-10-2019 05:00:00 11.80833 C 10.25 g/m*3 11.81 C 0.66667 km/h
679 18-10-2019 06:00:00 12.7 C 10.91 g/m*3 12.7 C 1.6 km/h
680 18-10-2019 07:00:00 12.60833 C 10.81 g/m*3 12.61 C 0.13333 km/h
681 18-10-2019 08:00:00 12.8 C 10.98 g/m*3 12.8 C 0.26667 km/h
682 18-10-2019 09:00:00 13.4 C 11.39 g/m*3 13.4 C 0 km/h
683 18-10-2019 10:00:00 14.38333 C 12.1 g/m*3 14.38 C 1.33333 km/h
684 18-10-2019 11:00:00 14.66667 C 12.23 g/m*3 14.67 C 3.88333 km/h
685 18-10-2019 12:00:00 15.46667 C 11.78 g/m*3 15.47 C 7.25 km/h
686 18-10-2019 13:00:00 14.95833 C 10.73 g/m*3 14.96 C 15.175 km/h
687 18-10-2019 14:00:00 12.91667 C 9.64 g/m*3 12.92 C 16.50833 km/h
688 18-10-2019 15:00:00 13.8 C 9.6 g/m*3 13.8 C 12.89167 km/h
689 18-10-2019 16:00:00 14.23333 C 9.29 g/m*3 14.23 C 15.425 km/h
690 18-10-2019 17:00:00 14.40833 C 9.06 g/m*3 14.41 C 9.8 km/h
691 18-10-2019 18:00:00 12.64167 C 8.93 g/m*3 12.64 C 2.41667 km/h
692 18-10-2019 19:00:00 10.63333 C 8.68 g/m*3 10.63 C 0.26667 km/h
693 18-10-2019 20:00:00 9.75833 C 8.5 g/m*3 9.76 C 0 km/h
694 18-10-2019 21:00:00 9.20833 C 8.34 g/m*3 9.21 C 0 km/h
695 18-10-2019 22:00:00 9.23333 C 8.49 g/m*3 9.23 C 0 km/h
696 18-10-2019 23:00:00 9.14167 C 8.45 g/m*3 9.14 C 0 km/h
697 19-10-2019 00:00:00 9.14167 C 8.47 g/m*3 9.14 C 0.66667 km/h
698 19-10-2019 01:00:00 9.64167 C 8.68 g/m*3 9.64 C 0.4 km/h
699 19-10-2019 02:00:00 9.65833 C 8.67 g/m*3 9.66 C 0 km/h
700 19-10-2019 03:00:00 9.875 C 8.76 g/m*3 9.88 C 0 km/h
Sensor: Nr:Datum:Temp:Abs-Feuchte:Windchill:Wind:
Aussen-T/F 701 19-10-2019 04:00:00 10.10833 C 8.89 g/m*3 10.11 C 0.53333 km/h
702 19-10-2019 05:00:00 10.68333 C 9.21 g/m*3 10.68 C 0.93333 km/h
703 19-10-2019 06:00:00 10.70833 C 9.19 g/m*3 10.71 C 0 km/h
704 19-10-2019 07:00:00 10.64167 C 9.23 g/m*3 10.64 C 0 km/h
705 19-10-2019 08:00:00 11.05 C 9.54 g/m*3 11.05 C 0.26667 km/h
706 19-10-2019 09:00:00 11.875 C 9.97 g/m*3 11.88 C 0.4 km/h
707 19-10-2019 10:00:00 13.025 C 10.3 g/m*3 13.03 C 1.2 km/h
708 19-10-2019 11:00:00 13.825 C 10.9 g/m*3 13.83 C 3.35 km/h
709 19-10-2019 12:00:00 15.40833 C 11.24 g/m*3 15.41 C 3.34167 km/h
710 19-10-2019 13:00:00 16.2 C 11.32 g/m*3 16.2 C 4.95833 km/h
711 19-10-2019 14:00:00 16.9 C 11.41 g/m*3 16.9 C 7.5 km/h
712 19-10-2019 15:00:00 17.24167 C 11.33 g/m*3 17.24 C 6.30833 km/h
713 19-10-2019 16:00:00 17.15 C 11.4 g/m*3 17.15 C 1.475 km/h
714 19-10-2019 17:00:00 16.84167 C 11.6 g/m*3 16.84 C 2.00833 km/h
715 19-10-2019 18:00:00 15.16364 C 11.61 g/m*3 15.16 C 0.87273 km/h
716 19-10-2019 19:00:00 14.03333 C 11.32 g/m*3 14.03 C 0 km/h
717 19-10-2019 20:00:00 13.625 C 11.19 g/m*3 13.63 C 0 km/h
718 19-10-2019 21:00:00 13.43333 C 11.14 g/m*3 13.43 C 0.53333 km/h
719 19-10-2019 22:00:00 13.21667 C 11.03 g/m*3 13.22 C 0 km/h
720 19-10-2019 23:00:00 13.00833 C 10.89 g/m*3 13.01 C 0 km/h

Maximal/Minimal-Werte vom 20.09.2019 - 19.10.2019

Sensor Min Max Avg
Temp
(Aussen-T/F)
4 °C
20-09-2019  07:30:00
25.5 °C
21-09-2019  17:50:00
13.43 °C
Abs-Feuchte
(Aussen-T/F)
5.96 g/m*3
20-09-2019  07:00:00
15.3 g/m*3
13-10-2019  13:00:00
10.27 g/m*3
Windchill
(Aussen-T/F)
4.13 C
20-09-2019  07:00:00
24.85 C
22-09-2019  15:00:00
13.39 C

Die Daten stammen von einer Davis Vantage Pro 2 Wetter-Station und werden unter Linux mit der Software wview2wettercgi und aufbereitet. Alle Angaben erfolgen ohne Gewähr für ihre Vollständigkeit oder Richtigkeit.
Kontakt: Rainer Krienke krienke@uni-koblenz.de . Meine Webseiten an der Uni Koblenz oder privat.
Version: $Revision: 0.78 $